Time;durP1;ratioP1;P1;durP2;ratioP2;P2;SDS_P1;SDS_P2;PMS_P1;PMS_P2;Temp;Humidity;BMP_temperature;BMP_pressure;BME280_temperature;BME280_humidity;BME280_pressure;Samples;Min_cycle;Max_cycle;Signal;HPM_P1;HPM_P2
2021/06/15 00:01:00;;;;;;;6.70;3.70;;;;;;;21.01;65.99;100090.64;1805976;77;22587;-63
2021/06/15 00:03:33;;;;;;;5.33;3.35;;;;;;;20.98;66.05;100086.81;1834493;77;22180;-58
2021/06/15 00:06:06;;;;;;;5.08;3.05;;;;;;;20.98;66.17;100089.48;1825166;77;22169;-63
2021/06/15 00:08:52;;;;;;;4.40;3.55;;;;;;;20.96;66.06;100097.63;1791012;80;21179;-64
2021/06/15 00:11:25;;;;;;;4.97;3.45;;;;;;;21.01;66.15;100085.29;1818016;77;22199;-58
2021/06/15 00:13:58;;;;;;;7.22;4.17;;;;;;;21.02;66.11;100082.51;1819542;77;22582;-58
2021/06/15 00:16:44;;;;;;;10.65;4.05;;;;;;;20.99;66.11;100088.05;1738014;81;21174;-59
2021/06/15 00:19:17;;;;;;;5.95;3.60;;;;;;;21.25;65.75;100085.61;1830918;77;22167;-58
2021/06/15 00:21:50;;;;;;;5.12;4.12;;;;;;;21.19;65.75;100084.18;1834491;77;22168;-59
2021/06/15 00:24:23;;;;;;;6.60;3.90;;;;;;;21.26;65.59;100085.98;1847401;77;22268;-63
2021/06/15 00:27:09;;;;;;;5.62;3.10;;;;;;;21.24;65.52;100092.76;1811342;79;21128;-65
2021/06/15 00:29:43;;;;;;;6.05;3.98;;;;;;;21.32;65.41;100088.29;1814566;77;22661;-63
2021/06/15 00:32:22;;;;;;;7.08;3.40;;;;;;;21.24;65.71;100089.23;1852812;77;22580;-63
2021/06/15 00:34:56;;;;;;;5.80;3.50;;;;;;;21.07;66.14;100084.92;1821766;77;22253;-63
2021/06/15 00:37:41;;;;;;;7.55;3.27;;;;;;;21.16;65.88;100084.37;1764228;80;21154;-59
2021/06/15 00:40:15;;;;;;;5.62;3.85;;;;;;;21.19;65.86;100074.81;1818414;77;22167;-63
2021/06/15 00:42:48;;;;;;;6.35;3.05;;;;;;;21.20;65.82;100066.29;1826188;77;22155;-58
2021/06/15 00:45:26;;;;;;;5.85;3.72;;;;;;;21.32;65.38;100068.22;1806992;77;22197;-58
2021/06/15 00:48:00;;;;;;;5.65;3.67;;;;;;;21.34;65.29;100069.44;1852530;77;22155;-58
2021/06/15 00:50:45;;;;;;;8.00;3.45;;;;;;;21.28;65.36;100071.16;1777400;80;21159;-64
2021/06/15 00:53:19;;;;;;;4.80;3.67;;;;;;;21.32;65.33;100063.33;1819841;77;22135;-58
2021/06/15 00:55:53;;;;;;;6.20;3.50;;;;;;;21.30;65.30;100063.89;1827680;77;22521;-62
2021/06/15 00:58:26;;;;;;;6.55;3.85;;;;;;;21.23;65.47;100067.44;1852855;77;22174;-62
2021/06/15 01:01:12;;;;;;;5.20;3.12;;;;;;;21.14;65.56;100068.88;1794680;78;21563;-63
2021/06/15 01:03:45;;;;;;;5.62;3.40;;;;;;;21.09;65.63;100068.30;1824821;77;22167;-62
2021/06/15 01:06:27;;;;;;;5.80;3.65;;;;;;;21.07;65.63;100068.88;1803841;77;22443;-58
2021/06/15 01:09:42;;;;;;;5.53;3.27;;;;;;;21.06;65.57;100066.66;1746578;80;21606;-63
2021/06/15 01:12:36;;;;;;;6.55;3.80;;;;;;;21.16;65.43;100058.06;1819889;77;22166;-62
2021/06/15 01:15:23;;;;;;;5.35;3.37;;;;;;;21.10;65.55;100048.62;1837634;77;22210;-58
2021/06/15 01:18:01;;;;;;;5.12;3.80;;;;;;;21.10;65.43;100053.97;1823286;77;22131;-58
2021/06/15 01:20:52;;;;;;;7.03;4.40;;;;;;;21.10;65.39;100054.81;1753944;81;21156;-59
2021/06/15 01:23:57;;;;;;;6.87;3.60;;;;;;;21.22;64.96;100045.16;1841434;77;22584;-62
2021/06/15 01:27:10;;;;;;;8.05;4.00;;;;;;;21.14;65.03;100054.16;1832652;77;22175;-62
2021/06/15 01:29:46;;;;;;;6.15;3.72;;;;;;;21.05;65.21;100054.72;1820649;77;22178;-58
2021/06/15 01:32:33;;;;;;;6.85;3.50;;;;;;;20.99;65.12;100053.27;1761107;81;21288;-63
2021/06/15 01:35:08;;;;;;;7.87;4.87;;;;;;;20.85;65.50;100050.09;1820182;77;22214;-62
2021/06/15 01:37:43;;;;;;;7.05;4.22;;;;;;;;;;1850004;77;22171;-58
2021/06/15 01:40:21;;;;;;;6.85;4.72;;;;;;;20.86;65.45;100050.98;1795679;77;38794;-58
2021/06/15 01:42:58;;;;;;;6.67;3.77;;;;;;;20.88;65.40;100054.42;1836478;77;22552;-62
2021/06/15 01:45:47;;;;;;;4.67;4.08;;;;;;;20.95;65.06;100053.94;1791827;80;21766;-60
2021/06/15 01:48:47;;;;;;;8.20;3.35;;;;;;;20.69;65.74;100060.83;1829946;77;22185;-62
2021/06/15 01:51:23;;;;;;;11.83;4.83;;;;;;;20.62;65.92;100071.05;1821111;77;22202;-62
2021/06/15 01:54:09;;;;;;;5.00;3.58;;;;;;;20.60;66.10;100068.94;1843643;77;22138;-62
2021/06/15 01:56:56;;;;;;;9.05;4.20;;;;;;;20.53;66.21;100070.25;1776566;80;21192;-63
2021/06/15 01:59:29;;;;;;;6.65;3.55;;;;;;;20.57;66.24;100070.91;1819561;77;22201;-62
2021/06/15 02:02:03;;;;;;;5.50;3.90;;;;;;;20.55;66.30;100067.01;1829740;77;22673;-62
2021/06/15 02:04:51;;;;;;;6.78;3.75;;;;;;;20.45;66.48;100072.05;1782275;80;21204;-63
2021/06/15 02:07:29;;;;;;;11.08;4.12;;;;;;;20.52;66.46;100063.17;1820911;77;22134;-62
2021/06/15 02:10:08;;;;;;;6.90;4.22;;;;;;;20.52;66.38;100067.19;1820476;77;22591;-58
2021/06/15 02:12:45;;;;;;;8.58;3.80;;;;;;;20.53;66.42;100062.72;1836069;77;22165;-61
2021/06/15 02:15:38;;;;;;;6.45;4.00;;;;;;;20.53;66.19;100072.08;1757635;80;21151;-59
2021/06/15 02:18:11;;;;;;;7.80;3.80;;;;;;;20.44;66.43;100074.33;1834624;77;22591;-62
2021/06/15 02:20:51;;;;;;;5.50;3.60;;;;;;;20.46;66.52;100074.22;1805758;77;22169;-57
2021/06/15 02:23:24;;;;;;;7.15;4.10;;;;;;;20.47;66.45;100075.48;1829369;77;22182;-62
2021/06/15 02:26:04;;;;;;;5.72;4.35;;;;;;;20.39;66.54;100083.09;1824383;77;22526;-62
2021/06/15 02:28:53;;;;;;;9.03;4.65;;;;;;;20.35;66.59;100082.39;1795426;80;21127;-63
2021/06/15 02:31:33;;;;;;;7.30;4.08;;;;;;;20.35;66.85;100079.72;1819307;77;23233;-62
2021/06/15 02:34:09;;;;;;;6.83;3.98;;;;;;;20.28;67.11;100086.85;1831197;77;22181;-58
2021/06/15 02:36:57;;;;;;;6.93;4.37;;;;;;;20.25;67.19;100088.36;1793162;80;21142;-63
2021/06/15 02:39:35;;;;;;;7.47;4.83;;;;;;;20.41;67.03;100088.33;1824300;77;22194;-58
2021/06/15 02:42:13;;;;;;;7.53;4.37;;;;;;;20.52;66.75;100081.05;1845693;77;22139;-62
2021/06/15 02:44:47;;;;;;;8.83;4.70;;;;;;;20.35;67.23;100085.06;1842895;77;22189;-59
2021/06/15 02:47:34;;;;;;;6.05;4.37;;;;;;;20.44;67.07;100093.50;1793116;80;21155;-58
2021/06/15 02:50:11;;;;;;;6.17;3.80;;;;;;;20.49;66.79;100082.95;1820090;77;22206;-62
2021/06/15 02:53:12;;;;;;;6.42;4.45;;;;;;;20.48;66.79;100083.02;1814407;77;22195;-58
2021/06/15 02:56:07;;;;;;;6.42;4.05;;;;;;;20.58;66.38;100093.56;1829383;77;22177;-58
2021/06/15 02:58:41;;;;;;;7.20;4.10;;;;;;;20.64;66.08;100090.99;1813369;77;22579;-62
2021/06/15 03:01:27;;;;;;;8.23;3.92;;;;;;;20.60;65.98;100100.14;1745849;80;21269;-63
2021/06/15 03:04:03;;;;;;;8.45;4.08;;;;;;;20.55;66.31;100088.86;1852847;77;22174;-58
2021/06/15 03:06:36;;;;;;;10.82;6.45;;;;;;;20.61;66.24;100081.81;1809192;77;28045;-62
2021/06/15 03:09:10;;;;;;;9.90;4.35;;;;;;;20.61;66.21;100088.03;1804596;77;22594;-62
2021/06/15 03:12:16;;;;;;;6.20;4.20;;;;;;;20.65;66.10;100091.37;1852881;77;22543;-62
2021/06/15 03:15:02;;;;;;;7.05;4.22;;;;;;;20.70;66.21;100085.77;1841164;77;22170;-58
2021/06/15 03:17:38;;;;;;;5.87;4.30;;;;;;;20.72;66.11;100089.22;1851949;77;22167;-62
2021/06/15 03:20:13;;;;;;;8.08;4.45;;;;;;;20.74;66.28;100088.16;1824032;77;22210;-62
2021/06/15 03:23:23;;;;;;;8.05;4.47;;;;;;;20.70;66.24;100093.30;1793071;80;21182;-63
2021/06/15 03:25:58;;;;;;;7.00;4.60;;;;;;;20.79;66.39;100094.14;1800480;77;22182;-58
2021/06/15 03:28:31;;;;;;;9.70;4.95;;;;;;;20.85;66.44;100102.75;1823999;77;22163;-58
2021/06/15 03:31:17;;;;;;;8.45;4.75;;;;;;;20.86;66.54;100112.00;1763633;80;21179;-59
2021/06/15 03:33:52;;;;;;;7.22;5.00;;;;;;;20.98;66.69;100110.89;1841713;77;22174;-58
2021/06/15 03:36:25;;;;;;;6.95;4.55;;;;;;;21.04;66.56;100107.84;1820301;77;22221;-61
2021/06/15 03:38:59;;;;;;;6.33;4.47;;;;;;;21.14;66.44;100105.00;1820226;77;22182;-58
2021/06/15 03:41:32;;;;;;;9.35;4.33;;;;;;;21.23;66.45;100100.89;1806878;77;22186;-59
2021/06/15 03:44:06;;;;;;;9.05;4.65;;;;;;;21.32;66.48;100097.66;1826786;77;22569;-58
2021/06/15 03:46:53;;;;;;;9.95;5.17;;;;;;;21.33;66.73;100101.18;1759172;81;21130;-61
2021/06/15 03:49:27;;;;;;;8.90;5.42;;;;;;;21.45;66.68;100098.20;1847449;77;22173;-62
2021/06/15 03:52:01;;;;;;;10.10;5.33;;;;;;;21.62;66.57;100099.89;1841605;77;22142;-57
2021/06/15 03:54:34;;;;;;;9.53;5.30;;;;;;;21.73;66.66;100100.54;1827506;77;22170;-57
2021/06/15 03:57:20;;;;;;;6.85;5.10;;;;;;;21.64;67.16;100106.85;1740867;81;21134;-59
2021/06/15 03:59:55;;;;;;;8.68;5.75;;;;;;;21.88;66.96;100094.18;1823228;77;22206;-62
2021/06/15 04:02:28;;;;;;;9.53;6.03;;;;;;;21.98;66.89;100089.95;1819609;77;22656;-60
2021/06/15 04:05:02;;;;;;;7.62;5.58;;;;;;;22.24;66.51;100086.53;1831752;77;22577;-57
2021/06/15 04:07:43;;;;;;;10.20;6.28;;;;;;;22.06;67.22;100085.45;1852816;77;22146;-62
2021/06/15 04:10:16;;;;;;;7.45;5.12;;;;;;;22.14;67.49;100087.63;1817099;77;22211;-62
2021/06/15 04:13:03;;;;;;;7.22;6.03;;;;;;;22.20;67.34;100083.67;1697943;83;21178;-58
2021/06/15 04:15:36;;;;;;;6.60;5.25;;;;;;;22.30;67.24;100078.09;1797928;77;22668;-58
2021/06/15 04:18:13;;;;;;;14.75;5.67;;;;;;;22.40;67.53;100083.69;1852592;77;22135;-58
2021/06/15 04:21:02;;;;;;;13.72;6.50;;;;;;;22.50;67.49;100078.13;1788660;80;21166;-62
2021/06/15 04:23:46;;;;;;;11.08;5.80;;;;;;;22.71;67.29;100069.60;1819439;77;22586;-61
2021/06/15 04:26:19;;;;;;;9.75;5.70;;;;;;;22.80;67.04;100070.28;1821118;77;22214;-61
2021/06/15 04:28:52;;;;;;;7.75;5.22;;;;;;;22.85;66.73;100061.45;1828241;77;22163;-57
2021/06/15 04:31:39;;;;;;;6.37;5.30;;;;;;;22.84;66.44;100065.59;1761722;81;21139;-63
2021/06/15 04:34:12;;;;;;;8.73;5.30;;;;;;;22.89;66.25;100067.48;1830302;77;22151;-61
2021/06/15 04:36:46;;;;;;;7.25;5.12;;;;;;;22.88;66.27;100062.58;1832991;77;22191;-58
2021/06/15 04:39:21;;;;;;;10.38;5.25;;;;;;;22.89;66.05;100051.38;1830947;77;22179;-58
2021/06/15 04:42:06;;;;;;;7.78;5.33;;;;;;;22.89;65.90;100051.38;1818013;77;22614;-57
2021/06/15 04:44:42;;;;;;;7.85;6.12;;;;;;;22.91;65.82;100054.81;1810003;77;28045;-58
2021/06/15 04:47:30;;;;;;;6.17;5.00;;;;;;;22.96;65.76;100050.45;1814088;77;22143;-58
2021/06/15 04:50:22;;;;;;;6.08;5.25;;;;;;;22.97;65.64;100048.99;1756761;81;21579;-58
2021/06/15 04:52:56;;;;;;;5.28;4.58;;;;;;;23.07;65.59;100052.38;1835850;77;22162;-58
2021/06/15 04:55:35;;;;;;;5.65;4.47;;;;;;;23.10;65.45;100050.36;1814104;77;22199;-58
2021/06/15 04:58:21;;;;;;;8.58;4.67;;;;;;;23.12;65.30;100055.60;1761382;81;21783;-62
2021/06/15 05:00:54;;;;;;;6.35;4.67;;;;;;;23.18;64.92;100049.81;1824213;77;22169;-58
2021/06/15 05:03:30;;;;;;;6.67;5.10;;;;;;;23.23;65.15;100044.13;1827705;77;22159;-58
2021/06/15 05:06:16;;;;;;;6.72;4.65;;;;;;;23.24;65.14;100052.56;1763194;80;21179;-59
2021/06/15 05:08:58;;;;;;;5.85;5.17;;;;;;;23.35;65.01;100047.30;1826438;77;22179;-62
2021/06/15 05:11:35;;;;;;;5.72;4.42;;;;;;;23.43;64.80;100044.92;1834479;77;22563;-59
2021/06/15 05:14:11;;;;;;;9.60;4.97;;;;;;;23.51;64.87;100040.84;1824124;77;22538;-61
2021/06/15 05:16:59;;;;;;;6.80;4.47;;;;;;;23.53;64.62;100042.92;1793405;79;21267;-62
2021/06/15 05:19:33;;;;;;;9.23;4.70;;;;;;;23.62;64.33;100035.55;1821393;77;22609;-58
2021/06/15 05:22:25;;;;;;;6.05;4.62;;;;;;;23.65;64.31;100050.58;1852103;77;22150;-61
2021/06/15 05:25:10;;;;;;;8.43;5.08;;;;;;;23.71;64.33;100053.66;1819698;77;22206;-58
2021/06/15 05:27:43;;;;;;;6.15;4.37;;;;;;;23.78;64.12;100050.06;1819142;77;22602;-58
2021/06/15 05:30:29;;;;;;;8.48;5.05;;;;;;;23.81;63.65;100062.40;1780270;80;21171;-62
2021/06/15 05:33:02;;;;;;;7.37;4.87;;;;;;;23.87;63.60;100063.30;1828113;77;22547;-61
2021/06/15 05:35:35;;;;;;;6.55;4.95;;;;;;;23.90;63.38;100066.61;1811431;77;22202;-58
2021/06/15 05:38:21;;;;;;;9.58;5.33;;;;;;;23.89;62.99;100072.11;1731726;83;21194;-59
2021/06/15 05:40:54;;;;;;;5.47;4.28;;;;;;;24.00;62.89;100075.38;1808245;77;22167;-58
2021/06/15 05:43:27;;;;;;;6.30;4.65;;;;;;;24.06;62.96;100073.58;1834470;77;22168;-62
2021/06/15 05:46:00;;;;;;;6.35;4.47;;;;;;;24.13;62.77;100072.62;1793371;77;22209;-58
2021/06/15 05:48:34;;;;;;;7.50;5.50;;;;;;;24.19;62.72;100073.52;1834487;77;22163;-61
2021/06/15 05:51:19;;;;;;;11.65;5.58;;;;;;;24.28;62.39;100072.84;1713254;82;21185;-59
2021/06/15 05:53:53;;;;;;;9.68;5.20;;;;;;;24.40;62.10;100064.83;1830270;77;22181;-58
2021/06/15 05:56:26;;;;;;;7.97;4.47;;;;;;;24.48;61.80;100065.11;1819796;77;22221;-59
2021/06/15 05:58:59;;;;;;;7.22;5.45;;;;;;;24.50;61.99;100061.31;1833536;77;22246;-61
2021/06/15 06:01:45;;;;;;;8.45;4.67;;;;;;;24.50;62.02;100068.55;1761563;81;21170;-59
2021/06/15 06:04:22;;;;;;;8.90;4.60;;;;;;;24.60;61.95;100064.66;1820134;77;22617;-59
2021/06/15 06:09:46;;;;;;;9.35;5.30;;;;;;;24.92;61.80;100051.44;1816436;77;22208;-58
2021/06/15 06:12:19;;;;;;;11.95;5.80;;;;;;;25.14;61.67;100058.32;1828166;77;22134;-62
2021/06/15 06:14:52;;;;;;;12.63;7.45;;;;;;;25.31;61.36;100060.52;1809021;77;22209;-62
2021/06/15 06:17:25;;;;;;;11.90;6.87;;;;;;;25.38;61.34;100064.44;1831280;77;22115;-59
2021/06/15 06:19:59;;;;;;;18.02;8.95;;;;;;;25.51;61.06;100067.03;1821924;77;22598;-58
2021/06/15 06:22:45;;;;;;;12.33;7.20;;;;;;;25.57;61.29;100072.91;1744631;80;21253;-60
2021/06/15 06:25:18;;;;;;;13.03;6.08;;;;;;;25.79;60.56;100068.86;1817503;77;22204;-59
2021/06/15 06:27:51;;;;;;;12.25;5.03;;;;;;;25.93;60.28;100067.72;1829150;77;22155;-62
2021/06/15 06:30:38;;;;;;;4.78;3.70;;;;;;;26.04;60.08;100073.56;1768053;80;21102;-59
2021/06/15 06:33:11;;;;;;;6.15;4.00;;;;;;;26.24;59.25;100065.70;1834498;77;22176;-59
2021/06/15 06:35:44;;;;;;;5.30;3.90;;;;;;;26.32;58.99;100064.55;1810425;77;22197;-62
2021/06/15 06:38:17;;;;;;;5.55;3.55;;;;;;;26.35;58.29;100064.80;1834477;77;22179;-59
2021/06/15 06:40:50;;;;;;;5.80;4.15;;;;;;;26.42;58.33;100060.09;1794694;77;22256;-59
2021/06/15 06:43:23;;;;;;;5.12;3.85;;;;;;;26.50;58.27;100063.99;1834479;77;22199;-59
2021/06/15 06:46:03;;;;;;;7.25;5.33;;;;;;;26.54;57.43;100058.70;1824283;77;22222;-62
2021/06/15 06:48:36;;;;;;;7.12;4.70;;;;;;;26.58;57.26;100063.70;1815323;77;22168;-63
2021/06/15 06:51:09;;;;;;;5.67;4.62;;;;;;;26.63;56.98;100063.80;1794384;77;22214;-58
2021/06/15 06:53:43;;;;;;;5.42;4.17;;;;;;;26.66;56.93;100067.11;1848467;77;22154;-60
2021/06/15 06:56:16;;;;;;;5.28;4.12;;;;;;;26.68;56.67;100066.48;1799863;77;22199;-63
2021/06/15 06:59:02;;;;;;;8.83;5.22;;;;;;;26.68;56.77;100066.48;1748186;81;21158;-60
2021/06/15 07:01:35;;;;;;;10.35;6.92;;;;;;;26.80;56.72;100059.65;1824178;77;22163;-59
2021/06/15 07:04:08;;;;;;;9.45;6.50;;;;;;;26.83;56.22;100056.24;1824170;77;22173;-59
2021/06/15 07:06:54;;;;;;;9.48;7.10;;;;;;;26.78;55.96;100063.84;1772244;80;21704;-64
2021/06/15 07:09:28;;;;;;;8.38;7.00;;;;;;;26.84;56.49;100054.38;1847062;77;22166;-62
2021/06/15 07:12:01;;;;;;;8.20;6.35;;;;;;;26.95;56.20;100056.15;1847399;77;22161;-63
2021/06/15 07:14:34;;;;;;;9.93;5.80;;;;;;;27.04;56.18;100058.05;1824639;77;22174;-59
2021/06/15 07:17:08;;;;;;;8.38;5.75;;;;;;;27.15;55.84;100053.09;1852750;77;22163;-58
2021/06/15 07:19:41;;;;;;;6.08;5.47;;;;;;;27.28;55.94;100056.40;1825172;77;22238;-63
2021/06/15 07:22:27;;;;;;;9.23;4.58;;;;;;;27.38;56.26;100059.64;1762264;80;21681;-64
2021/06/15 07:25:00;;;;;;;7.62;4.80;;;;;;;27.68;55.22;100053.38;1819354;77;22206;-58
2021/06/15 07:27:33;;;;;;;11.73;4.60;;;;;;;27.72;54.43;100048.06;1831267;77;22196;-63
2021/06/15 07:30:08;;;;;;;5.72;4.15;;;;;;;27.86;54.66;100046.80;1819505;77;22175;-59
2021/06/15 07:32:41;;;;;;;205.92;18.52;;;;;;;28.04;53.95;100050.16;1834332;77;22695;-59
2021/06/15 07:35:14;;;;;;;25.95;4.87;;;;;;;28.09;53.47;100042.99;1810313;77;22182;-59
2021/06/15 07:38:00;;;;;;;10.10;3.17;;;;;;;28.13;53.21;100042.59;1764393;81;21197;-63
2021/06/15 07:40:33;;;;;;;8.38;3.50;;;;;;;28.18;52.63;100036.77;1831425;77;22178;-62
2021/06/15 07:43:06;;;;;;;4.97;3.10;;;;;;;28.13;52.32;100032.28;1834374;77;22171;-63
2021/06/15 07:45:39;;;;;;;4.25;2.85;;;;;;;28.09;52.24;100033.01;1804544;77;22194;-63
2021/06/15 07:48:12;;;;;;;7.08;3.75;;;;;;;28.08;51.83;100035.36;1833601;77;22175;-58
2021/06/15 07:50:58;;;;;;;5.70;3.60;;;;;;;28.08;52.07;100035.36;1737454;81;21143;-60
2021/06/15 07:53:31;;;;;;;7.15;3.50;;;;;;;28.22;51.56;100031.44;1833557;77;22159;-59
2021/06/15 07:56:05;;;;;;;3.98;3.08;;;;;;;28.32;51.53;100027.37;1807073;77;22192;-59
2021/06/15 07:58:51;;;;;;;5.70;3.30;;;;;;;28.41;51.27;100022.45;1760819;81;21150;-60
2021/06/15 08:01:24;;;;;;;5.50;2.80;;;;;;;28.52;51.14;100012.45;1819198;77;22614;-59
2021/06/15 08:03:58;;;;;;;4.28;3.00;;;;;;;28.55;50.49;100008.97;1817088;77;22174;-59
2021/06/15 08:06:31;;;;;;;3.00;2.70;;;;;;;28.57;50.93;100008.33;1817716;77;22213;-59
2021/06/15 08:09:24;;;;;;;4.83;2.87;;;;;;;28.68;50.94;100015.94;1810347;77;22276;-63
2021/06/15 08:12:10;;;;;;;7.67;2.85;;;;;;;28.64;50.55;100018.94;1763102;80;21183;-63
2021/06/15 08:14:44;;;;;;;4.62;2.72;;;;;;;28.67;50.47;100014.23;1803254;77;22245;-63
2021/06/15 08:17:18;;;;;;;3.20;2.87;;;;;;;28.70;50.85;100016.13;1804677;77;22558;-63
2021/06/15 08:19:57;;;;;;;4.03;3.08;;;;;;;28.82;51.13;100007.36;1802260;77;22341;-59
2021/06/15 08:22:31;;;;;;;4.37;2.90;;;;;;;28.92;50.45;100006.84;1813553;77;22195;-59
2021/06/15 08:25:05;;;;;;;5.62;3.25;;;;;;;28.99;50.40;100003.55;1803107;77;22242;-60
2021/06/15 08:27:51;;;;;;;3.52;2.70;;;;;;;29.04;50.19;100002.09;1776377;80;21127;-60
2021/06/15 08:30:24;;;;;;;5.60;3.08;;;;;;;29.18;50.36;99995.33;1807866;77;22200;-63
2021/06/15 08:32:58;;;;;;;4.50;2.70;;;;;;;29.27;50.36;99998.14;1817324;77;22163;-63
2021/06/15 08:35:44;;;;;;;8.53;3.30;;;;;;;29.33;50.56;99994.84;1795632;78;21466;-63
2021/06/15 08:38:18;;;;;;;5.35;3.60;;;;;;;29.55;50.33;99985.47;1830518;77;22194;-64
2021/06/15 08:40:52;;;;;;;5.47;4.10;;;;;;;29.75;49.68;99986.20;1827004;77;22209;-63
2021/06/15 08:43:25;;;;;;;7.35;4.37;;;;;;;29.95;49.29;99979.28;1845649;77;22128;-64
2021/06/15 08:46:12;;;;;;;4.47;3.55;;;;;;;30.12;49.04;99981.67;1765402;80;21362;-64
2021/06/15 08:48:51;;;;;;;7.78;3.67;;;;;;;30.32;48.68;99978.27;1833597;77;22574;-64
2021/06/15 08:51:24;;;;;;;8.13;3.05;;;;;;;30.40;48.38;99973.40;1818622;77;22209;-63
2021/06/15 08:54:03;;;;;;;4.78;3.40;;;;;;;30.50;48.20;99976.88;1827600;77;22613;-63
2021/06/15 08:56:49;;;;;;;4.30;3.12;;;;;;;30.58;47.94;99974.75;1764734;81;21633;-64
2021/06/15 08:59:26;;;;;;;7.78;3.70;;;;;;;30.74;47.60;99969.08;1830197;77;22187;-63
2021/06/15 09:02:07;;;;;;;4.62;3.35;;;;;;;30.83;47.29;99968.96;1829011;77;22155;-63
2021/06/15 09:04:41;;;;;;;4.60;3.40;;;;;;;30.94;46.92;99966.46;1826232;77;22198;-62
2021/06/15 09:07:27;;;;;;;6.17;3.65;;;;;;;30.96;46.49;99969.87;1761755;80;21697;-64
2021/06/15 09:10:00;;;;;;;4.97;3.60;;;;;;;31.10;46.64;99957.56;1819617;77;22222;-64
2021/06/15 09:12:33;;;;;;;4.65;3.62;;;;;;;31.18;46.65;99959.48;1834259;77;22575;-63
2021/06/15 09:15:09;;;;;;;4.83;3.77;;;;;;;31.21;46.14;99946.92;1820007;77;22203;-63
2021/06/15 09:17:45;;;;;;;4.97;3.50;;;;;;;31.26;45.76;99949.14;1834472;77;20406;-62
2021/06/15 09:20:32;;;;;;;5.55;3.92;;;;;;;31.30;46.13;99951.88;1773984;80;21130;-60
2021/06/15 09:23:07;;;;;;;5.15;3.85;;;;;;;31.40;45.96;99949.88;1822951;77;22194;-58
2021/06/15 09:25:40;;;;;;;6.22;4.72;;;;;;;31.48;46.00;99945.48;1765986;77;28100;-58
2021/06/15 09:28:21;;;;;;;6.97;4.40;;;;;;;31.57;45.54;99941.25;1821669;77;22205;-59
2021/06/15 09:31:07;;;;;;;6.50;3.87;;;;;;;31.71;45.54;99937.54;1807454;77;22170;-60
2021/06/15 09:33:46;;;;;;;6.37;4.10;;;;;;;31.87;45.29;99936.73;1819455;77;22172;-59
2021/06/15 09:36:35;;;;;;;5.35;4.25;;;;;;;31.97;44.78;99941.50;1753650;81;21269;-60
2021/06/15 09:39:07;;;;;;;5.30;3.80;;;;;;;32.15;44.73;99925.00;1816789;77;22152;-60
2021/06/15 09:41:46;;;;;;;5.20;4.03;;;;;;;32.27;44.14;99925.49;1819916;77;22160;-59
2021/06/15 09:44:32;;;;;;;5.03;3.50;;;;;;;32.32;44.00;99923.63;1780539;80;21198;-60
2021/06/15 09:47:07;;;;;;;3.98;3.52;;;;;;;32.51;44.05;99907.42;1824344;77;22191;-59
2021/06/15 09:49:44;;;;;;;4.95;2.98;;;;;;;32.70;43.93;99906.70;1818601;77;22231;-60
2021/06/15 09:52:29;;;;;;;4.12;3.40;;;;;;;32.88;43.87;99898.33;1819135;77;23349;-59
2021/06/15 09:55:16;;;;;;;4.12;3.55;;;;;;;33.00;43.48;99904.23;1775898;80;21161;-60
2021/06/15 09:57:56;;;;;;;5.25;3.72;;;;;;;33.08;43.20;99887.84;1813823;77;22223;-59
2021/06/15 10:00:29;;;;;;;7.08;3.60;;;;;;;33.14;43.17;99887.13;1810957;77;22675;-59
2021/06/15 10:03:16;;;;;;;5.65;4.10;;;;;;;33.14;42.73;99888.50;1776117;80;21705;-60
2021/06/15 10:05:49;;;;;;;4.33;3.30;;;;;;;33.20;42.76;99878.73;1794160;77;22230;-59
2021/06/15 10:08:22;;;;;;;4.92;3.80;;;;;;;33.30;42.67;99877.17;1816838;77;22636;-60
2021/06/15 10:10:55;;;;;;;5.28;3.87;;;;;;;33.56;42.45;99867.80;1788034;77;22218;-59
2021/06/15 10:13:28;;;;;;;5.70;4.37;;;;;;;33.78;42.60;99863.37;1811801;77;22192;-58
2021/06/15 10:16:01;;;;;;;4.62;3.55;;;;;;;34.04;42.17;99859.40;1799030;77;22222;-59
2021/06/15 10:18:35;;;;;;;5.30;3.92;;;;;;;34.31;41.76;99846.17;1816676;77;23363;-59
2021/06/15 10:21:20;;;;;;;4.20;3.37;;;;;;;34.56;40.97;99844.04;1776764;78;21311;-59
2021/06/15 10:23:54;;;;;;;5.87;3.87;;;;;;;34.66;39.54;99833.64;1822777;77;22189;-59
2021/06/15 10:26:27;;;;;;;4.45;3.85;;;;;;;34.54;38.96;99832.45;1799946;77;22256;-59
2021/06/15 10:29:00;;;;;;;5.30;3.67;;;;;;;34.39;39.22;99830.53;1814611;77;22175;-60
2021/06/15 10:31:47;;;;;;;5.33;3.95;;;;;;;34.16;39.42;99827.89;1745829;81;21178;-60
2021/06/15 10:35:00;;;;;;;4.20;3.02;;;;;;;33.92;39.37;99818.06;1812780;77;22209;-60
2021/06/15 10:37:39;;;;;;;5.20;3.52;;;;;;;33.68;39.12;99804.97;1811728;77;22214;-59
2021/06/15 10:40:34;;;;;;;4.05;3.27;;;;;;;33.53;39.50;99800.84;1805695;77;22712;-60
2021/06/15 10:43:23;;;;;;;6.25;3.70;;;;;;;33.70;39.74;99804.27;1823548;77;22600;-58
2021/06/15 10:46:23;;;;;;;3.47;3.00;;;;;;;33.96;39.30;99797.56;1747306;80;21237;-60
2021/06/15 10:49:00;;;;;;;4.62;3.20;;;;;;;34.29;38.15;99801.28;1818101;77;23323;-58
2021/06/15 10:51:46;;;;;;;6.70;3.20;;;;;;;34.53;37.17;99805.63;1813924;78;22178;-59
2021/06/15 10:54:41;;;;;;;5.55;3.70;;;;;;;34.74;36.61;99802.64;1821717;77;22561;-59
2021/06/15 10:57:18;;;;;;;4.55;3.25;;;;;;;34.98;36.52;99795.16;1817958;77;23223;-59
2021/06/15 11:00:12;;;;;;;3.40;3.00;;;;;;;35.30;36.44;99788.88;1807085;77;22166;-58
2021/06/15 11:03:14;;;;;;;5.83;2.90;;;;;;;35.57;36.76;99775.45;1812032;77;22160;-58
2021/06/15 11:05:59;;;;;;;4.17;3.45;;;;;;;35.90;36.29;99758.42;1787738;77;22162;-58
2021/06/15 11:08:33;;;;;;;4.58;3.15;;;;;;;36.14;36.01;99756.30;1822124;78;22154;-61
2021/06/15 11:11:19;;;;;;;5.55;2.92;;;;;;;36.29;34.48;99752.88;1790283;77;22603;-59
2021/06/15 11:13:54;;;;;;;4.25;3.27;;;;;;;36.26;33.34;99749.17;1817135;77;20291;-60
2021/06/15 11:16:34;;;;;;;5.77;3.70;;;;;;;36.07;33.59;99748.56;1787136;77;28246;-60
2021/06/15 11:19:26;;;;;;;6.53;2.92;;;;;;;35.79;33.69;99735.70;1775653;80;21287;-60
2021/06/15 11:22:08;;;;;;;4.75;2.87;;;;;;;35.50;34.30;99740.35;1804076;77;22211;-59
2021/06/15 11:24:50;;;;;;;7.45;3.30;;;;;;;35.10;34.35;99749.03;1804813;77;22271;-59
2021/06/15 11:27:29;;;;;;;3.72;2.98;;;;;;;34.69;34.66;99765.48;1814012;77;22194;-59
2021/06/15 11:30:21;;;;;;;4.10;3.02;;;;;;;34.31;35.24;99775.17;1805117;77;22218;-59
2021/06/15 11:33:04;;;;;;;10.85;4.17;;;;;;;33.94;35.81;99804.58;1818844;77;22172;-62
2021/06/15 11:35:48;;;;;;;17.80;6.67;;;;;;;33.50;36.77;99795.75;1766800;80;21176;-63
2021/06/15 16:02:05;;;;;;;13.88;12.53;;;;;;;23.07;73.63;99703.02;1813792;77;22159;-60
2021/06/15 16:04:39;;;;;;;12.18;11.08;;;;;;;23.13;72.84;99700.34;1849169;77;22195;-58
2021/06/15 16:07:12;;;;;;;15.23;11.33;;;;;;;23.17;72.36;99695.98;1796290;77;22612;-58
2021/06/15 16:09:46;;;;;;;12.07;10.98;;;;;;;23.21;71.88;99700.62;1829358;77;22198;-58
2021/06/15 16:12:20;;;;;;;12.28;10.98;;;;;;;23.23;71.52;99708.11;1849099;77;22207;-58
2021/06/15 16:14:53;;;;;;;12.07;10.75;;;;;;;23.25;71.18;99710.19;1821758;77;22262;-61
2021/06/15 16:17:48;;;;;;;11.15;10.13;;;;;;;23.39;70.41;99723.89;1849699;76;22247;-63
2021/06/15 16:20:21;;;;;;;11.88;10.65;;;;;;;23.39;70.16;99721.20;1821352;77;22210;-61
2021/06/15 16:22:56;;;;;;;11.68;10.58;;;;;;;23.36;69.95;99725.47;1829809;77;22662;-61
2021/06/15 16:25:30;;;;;;;11.75;10.68;;;;;;;23.31;69.84;99716.44;1837466;77;22229;-61
2021/06/15 16:28:05;;;;;;;10.90;9.90;;;;;;;23.28;69.66;99714.45;1852730;77;22586;-61
2021/06/15 16:30:40;;;;;;;11.30;10.23;;;;;;;23.27;69.52;99718.11;1835178;77;22600;-58
2021/06/15 16:33:15;;;;;;;11.35;10.30;;;;;;;23.25;69.29;99721.39;1818128;77;20122;-61
2021/06/15 16:35:49;;;;;;;11.60;10.25;;;;;;;23.23;69.10;99720.19;1833081;77;22245;-61
2021/06/15 16:38:22;;;;;;;11.93;10.58;;;;;;;23.03;69.51;99723.00;1834378;77;22618;-61
2021/06/15 16:40:56;;;;;;;11.63;10.53;;;;;;;23.08;69.31;99726.67;1813516;77;22614;-61
2021/06/15 16:43:41;;;;;;;11.45;9.58;;;;;;;22.96;69.48;99725.77;1730536;82;21660;-58
2021/06/15 16:46:15;;;;;;;13.85;12.23;;;;;;;23.17;68.64;99722.83;1808761;77;22222;-58
2021/06/15 16:48:48;;;;;;;12.90;10.53;;;;;;;23.17;68.47;99726.86;1852682;77;22470;-61